Time;durP1;ratioP1;P1;durP2;ratioP2;P2;SDS_P1;SDS_P2;PMS_P1;PMS_P2;Temp;Humidity;BMP_temperature;BMP_pressure;BME280_temperature;BME280_humidity;BME280_pressure;Samples;Min_cycle;Max_cycle;Signal;HPM_P1;HPM_P2
2021/08/03 00:01:43;;;;;;;4.38;2.00;;;14.70;99.90;;;;;;5042002;28;20016;-56
2021/08/03 00:04:17;;;;;;;3.25;2.53;;;14.60;99.90;;;;;;5039691;28;20387;-55
2021/08/03 00:07:03;;;;;;;3.50;2.22;;;14.60;99.90;;;;;;5041274;28;20029;-55
2021/08/03 00:09:31;;;;;;;2.70;2.13;;;14.60;99.90;;;;;;5035094;28;20021;-55
2021/08/03 00:11:58;;;;;;;3.65;2.53;;;14.60;99.90;;;;;;5038267;28;20127;-56
2021/08/03 00:14:24;;;;;;;3.67;1.88;;;14.60;99.90;;;;;;5042345;28;20036;-56
2021/08/03 00:16:50;;;;;;;3.75;2.42;;;14.60;99.90;;;;;;5039086;28;20028;-54
2021/08/03 00:19:16;;;;;;;2.85;2.35;;;14.60;99.90;;;;;;5036729;28;20387;-54
2021/08/03 00:21:41;;;;;;;3.63;2.13;;;14.60;99.90;;;;;;5038211;28;20066;-56
2021/08/03 00:24:07;;;;;;;3.58;2.50;;;14.50;99.90;;;;;;5040179;28;20045;-56
2021/08/03 00:26:33;;;;;;;3.72;3.03;;;14.50;99.90;;;;;;5040927;28;20017;-54
2021/08/03 00:28:59;;;;;;;5.25;2.53;;;14.50;99.90;;;;;;5039942;28;20029;-54
2021/08/03 00:31:26;;;;;;;3.60;2.45;;;14.50;99.90;;;;;;5037250;28;20032;-56
2021/08/03 00:33:54;;;;;;;3.00;2.13;;;14.50;99.90;;;;;;5043458;28;20029;-54
2021/08/03 00:36:23;;;;;;;4.70;2.38;;;14.40;99.90;;;;;;5036581;28;20018;-55
2021/08/03 00:38:49;;;;;;;3.28;2.15;;;14.40;99.90;;;;;;5044599;28;20056;-55
2021/08/03 00:41:29;;;;;;;6.10;2.08;;;14.30;99.90;;;;;;5037246;28;20053;-54
2021/08/03 00:43:55;;;;;;;3.58;2.50;;;14.20;99.90;;;;;;5044977;28;20017;-55
2021/08/03 00:46:21;;;;;;;2.40;2.20;;;14.20;99.90;;;;;;5037191;28;20033;-53
2021/08/03 00:48:47;;;;;;;3.20;2.65;;;14.20;99.90;;;;;;5038155;28;20026;-56
2021/08/03 00:51:13;;;;;;;2.70;2.22;;;14.20;99.90;;;;;;5030129;28;20044;-57
2021/08/03 00:53:42;;;;;;;5.70;3.13;;;14.20;99.90;;;;;;5038933;28;20024;-53
2021/08/03 00:56:08;;;;;;;3.47;2.65;;;14.20;99.90;;;;;;5044388;28;20499;-56
2021/08/03 00:58:34;;;;;;;4.07;2.45;;;14.10;99.90;;;;;;5035441;28;20083;-52
2021/08/03 01:01:00;;;;;;;4.25;2.90;;;14.10;99.90;;;;;;5036425;28;20513;-54
2021/08/03 01:03:26;;;;;;;4.72;2.40;;;14.10;99.90;;;;;;5039140;28;20017;-54
2021/08/03 01:06:20;;;;;;;3.42;3.13;;;14.20;99.90;;;;;;5036045;28;20071;-55
2021/08/03 01:09:04;;;;;;;3.55;2.95;;;14.20;99.90;;;;;;5039866;28;20025;-54
2021/08/03 01:11:54;;;;;;;3.78;2.78;;;14.10;99.90;;;;;;5029178;28;20071;-54
2021/08/03 01:14:36;;;;;;;4.00;2.70;;;14.20;99.90;;;;;;5030822;28;20043;-52
2021/08/03 01:17:31;;;;;;;6.82;2.83;;;14.20;99.90;;;;;;5039023;28;20079;-55
2021/08/03 01:20:25;;;;;;;4.57;3.50;;;14.20;99.90;;;;;;5025842;28;20081;-54
2021/08/03 01:23:10;;;;;;;5.82;4.75;;;14.20;99.90;;;;;;5033887;28;20439;-53
2021/08/03 01:25:35;;;;;;;3.08;2.78;;;14.20;99.90;;;;;;5040182;28;20620;-52
2021/08/03 01:28:19;;;;;;;3.83;2.42;;;14.20;99.90;;;;;;5038045;28;20025;-53
2021/08/03 01:30:52;;;;;;;4.22;2.15;;;14.10;99.90;;;;;;5038551;28;20495;-53
2021/08/03 01:33:21;;;;;;;4.18;3.30;;;14.20;99.90;;;;;;5028004;28;20052;-53
2021/08/03 01:35:48;;;;;;;3.17;2.50;;;14.20;99.90;;;;;;5038763;28;20171;-52
2021/08/03 01:38:18;;;;;;;3.78;3.47;;;14.20;99.90;;;;;;5039928;28;20376;-52
2021/08/03 01:40:45;;;;;;;3.88;3.03;;;14.20;99.90;;;;;;5039783;28;20028;-54
2021/08/03 01:43:11;;;;;;;5.32;2.53;;;14.20;99.90;;;;;;5039571;28;20098;-54
2021/08/03 01:45:38;;;;;;;7.18;2.60;;;14.20;99.90;;;;;;5039763;28;20509;-55
2021/08/03 01:48:05;;;;;;;5.18;3.28;;;14.20;99.90;;;;;;5036621;28;20476;-55
2021/08/03 01:50:31;;;;;;;4.15;2.63;;;14.10;99.90;;;;;;5036811;28;20095;-53
2021/08/03 01:52:58;;;;;;;6.32;2.88;;;14.10;99.90;;;;;;5038716;28;20442;-52
2021/08/03 01:55:25;;;;;;;3.40;2.35;;;14.20;99.90;;;;;;5039828;28;20016;-53
2021/08/03 01:57:51;;;;;;;3.20;2.13;;;14.10;99.90;;;;;;5039132;28;20441;-55
2021/08/03 02:00:16;;;;;;;6.05;2.53;;;14.10;99.90;;;;;;5039897;28;20025;-56
2021/08/03 02:02:43;;;;;;;3.10;2.63;;;14.20;99.90;;;;;;5039591;28;20017;-52
2021/08/03 02:05:09;;;;;;;3.58;2.40;;;14.10;99.90;;;;;;5037532;28;20064;-55
2021/08/03 02:07:35;;;;;;;4.70;2.25;;;14.20;99.90;;;;;;5039762;28;20017;-54
2021/08/03 02:10:02;;;;;;;2.05;1.90;;;14.10;99.90;;;;;;5038260;28;20043;-55
2021/08/03 02:12:31;;;;;;;2.75;1.92;;;14.10;99.90;;;;;;5040096;28;20155;-55
2021/08/03 02:14:56;;;;;;;4.03;2.45;;;14.10;99.90;;;;;;5037396;28;20115;-52
2021/08/03 02:17:25;;;;;;;3.35;1.90;;;14.10;99.90;;;;;;5039806;28;20100;-55
2021/08/03 02:19:51;;;;;;;6.97;2.10;;;14.10;99.90;;;;;;5039416;28;20033;-54
2021/08/03 02:22:18;;;;;;;2.60;2.25;;;14.10;99.90;;;;;;5037612;28;20434;-53
2021/08/03 02:24:44;;;;;;;4.43;2.50;;;14.10;99.90;;;;;;5038455;28;20047;-52
2021/08/03 02:27:11;;;;;;;2.20;2.00;;;14.10;99.90;;;;;;5036569;28;20298;-56
2021/08/03 02:29:45;;;;;;;3.05;2.45;;;14.00;99.90;;;;;;5036236;28;20026;-52
2021/08/03 02:32:24;;;;;;;2.95;1.88;;;14.00;99.90;;;;;;5045673;28;20029;-52
2021/08/03 02:34:54;;;;;;;3.53;2.17;;;14.00;99.90;;;;;;5032666;28;20029;-55
2021/08/03 02:37:28;;;;;;;4.18;2.70;;;14.10;99.90;;;;;;5036192;28;20464;-52
2021/08/03 02:39:54;;;;;;;3.88;2.75;;;14.00;99.90;;;;;;5033439;28;20037;-52
2021/08/03 02:42:21;;;;;;;3.65;2.85;;;14.00;99.90;;;;;;5043468;28;20475;-51
2021/08/03 02:44:50;;;;;;;6.15;2.78;;;14.00;99.90;;;;;;5035956;28;20040;-55
2021/08/03 02:47:25;;;;;;;4.85;2.17;;;14.00;99.90;;;;;;5023268;28;20028;-52
2021/08/03 02:49:52;;;;;;;4.20;2.40;;;14.00;99.90;;;;;;5033433;28;20029;-51
2021/08/03 02:52:23;;;;;;;3.30;2.40;;;14.00;99.90;;;;;;5039789;28;20017;-56
2021/08/03 02:54:56;;;;;;;5.90;3.03;;;14.00;99.90;;;;;;5038171;28;20026;-51
2021/08/03 02:57:23;;;;;;;3.42;2.42;;;14.00;99.90;;;;;;5026858;28;20032;-54
2021/08/03 02:59:54;;;;;;;4.80;2.72;;;14.00;99.90;;;;;;5038545;28;20041;-53
2021/08/03 03:02:20;;;;;;;7.65;2.70;;;14.00;99.90;;;;;;5027492;28;20017;-56
2021/08/03 03:05:04;;;;;;;4.50;2.55;;;14.00;99.90;;;;;;5037805;28;20044;-53
2021/08/03 03:07:33;;;;;;;4.68;2.70;;;13.90;99.90;;;;;;5031050;28;20016;-54
2021/08/03 03:10:01;;;;;;;4.55;2.70;;;13.90;99.90;;;;;;5036400;28;20466;-55
2021/08/03 03:12:31;;;;;;;4.93;2.35;;;13.90;99.90;;;;;;5039045;28;20024;-51
2021/08/03 03:14:59;;;;;;;3.47;2.58;;;13.90;99.90;;;;;;5040716;28;20032;-52
2021/08/03 03:17:26;;;;;;;3.70;2.67;;;13.80;99.90;;;;;;5042795;28;20044;-54
2021/08/03 03:19:55;;;;;;;4.72;2.42;;;13.80;99.90;;;;;;5042183;28;20033;-53
2021/08/03 03:22:22;;;;;;;4.50;2.67;;;13.80;99.90;;;;;;5034199;28;20039;-56
2021/08/03 03:24:49;;;;;;;3.40;2.60;;;13.80;99.90;;;;;;5042585;28;20018;-53
2021/08/03 03:27:17;;;;;;;3.97;2.35;;;13.80;99.90;;;;;;5038816;28;20091;-53
2021/08/03 03:29:44;;;;;;;3.65;2.30;;;13.80;99.90;;;;;;5039275;28;20108;-52
2021/08/03 03:32:10;;;;;;;3.25;2.50;;;13.80;99.90;;;;;;5045587;28;20503;-55
2021/08/03 03:34:39;;;;;;;7.15;3.13;;;13.80;99.90;;;;;;5038973;28;20048;-52
2021/08/03 03:37:05;;;;;;;4.68;2.70;;;13.80;99.90;;;;;;5045744;28;20048;-51
2021/08/03 03:39:34;;;;;;;4.25;2.53;;;13.80;99.90;;;;;;5038691;28;20068;-55
2021/08/03 03:42:02;;;;;;;2.67;2.22;;;13.80;99.90;;;;;;5045331;28;20129;-53
2021/08/03 03:44:28;;;;;;;4.43;2.35;;;13.80;99.90;;;;;;5038561;28;20562;-54
2021/08/03 03:46:58;;;;;;;2.60;2.33;;;13.80;99.90;;;;;;5038401;28;20030;-55
2021/08/03 03:49:26;;;;;;;3.78;2.20;;;13.80;99.90;;;;;;5043234;28;20013;-52
2021/08/03 03:51:52;;;;;;;7.93;3.40;;;13.80;99.90;;;;;;5039197;28;20018;-52
2021/08/03 03:54:25;;;;;;;2.70;2.50;;;13.80;99.90;;;;;;5045628;28;20360;-54
2021/08/03 03:57:00;;;;;;;3.10;2.67;;;13.80;99.90;;;;;;5035613;28;20025;-54
2021/08/03 03:59:26;;;;;;;4.72;3.22;;;13.80;99.90;;;;;;5044926;28;20487;-54
2021/08/03 04:01:56;;;;;;;8.43;3.05;;;13.90;99.90;;;;;;5038951;28;20128;-54
2021/08/03 04:04:23;;;;;;;4.43;3.58;;;13.80;99.90;;;;;;5042027;28;20558;-52
2021/08/03 04:06:50;;;;;;;4.90;3.28;;;13.80;99.90;;;;;;5039606;28;20022;-53
2021/08/03 04:09:19;;;;;;;6.05;3.75;;;13.80;99.90;;;;;;5027350;28;20021;-53
2021/08/03 04:11:46;;;;;;;6.15;2.88;;;13.90;99.90;;;;;;5040159;28;20036;-54
2021/08/03 04:14:16;;;;;;;4.10;2.90;;;13.90;99.90;;;;;;5041067;28;20091;-54
2021/08/03 04:16:42;;;;;;;2.20;1.95;;;13.90;99.90;;;;;;5041997;28;20025;-54
2021/08/03 04:19:07;;;;;;;3.42;2.15;;;13.90;99.90;;;;;;5039011;28;20036;-50
2021/08/03 04:21:33;;;;;;;3.55;2.25;;;13.90;99.90;;;;;;5041457;28;20100;-52
2021/08/03 04:23:58;;;;;;;6.38;3.03;;;13.90;99.90;;;;;;5038156;28;20060;-52
2021/08/03 04:26:24;;;;;;;4.47;2.97;;;13.80;99.90;;;;;;5040333;28;20482;-53
2021/08/03 04:28:49;;;;;;;3.65;3.35;;;13.90;99.90;;;;;;5041516;28;20386;-50
2021/08/03 04:31:15;;;;;;;3.90;3.03;;;13.90;99.90;;;;;;5038878;28;20047;-50
2021/08/03 04:33:40;;;;;;;3.70;2.80;;;13.90;99.90;;;;;;5041194;28;20021;-50
2021/08/03 04:36:06;;;;;;;4.45;2.92;;;13.90;99.90;;;;;;5038773;28;20025;-52
2021/08/03 04:38:32;;;;;;;2.72;2.40;;;13.90;99.90;;;;;;5040947;28;20552;-51
2021/08/03 04:40:57;;;;;;;2.90;2.60;;;13.90;99.90;;;;;;5040322;28;20146;-50
2021/08/03 04:43:23;;;;;;;2.47;2.28;;;13.90;99.90;;;;;;5041140;28;20029;-55
2021/08/03 04:45:48;;;;;;;2.92;2.30;;;13.90;99.90;;;;;;5040870;28;20028;-53
2021/08/03 04:48:14;;;;;;;2.53;1.90;;;13.90;99.90;;;;;;5035997;28;20017;-52
2021/08/03 04:50:40;;;;;;;2.53;1.85;;;14.00;99.90;;;;;;5039796;28;20025;-51
2021/08/03 04:53:06;;;;;;;2.13;1.70;;;14.00;99.90;;;;;;5039214;28;20017;-55
2021/08/03 04:55:32;;;;;;;1.65;1.55;;;14.00;99.90;;;;;;5040578;28;20017;-54
2021/08/03 04:57:57;;;;;;;1.60;1.50;;;14.00;99.90;;;;;;5040544;28;20021;-52
2021/08/03 05:00:23;;;;;;;2.55;1.50;;;14.00;99.90;;;;;;5040842;28;20041;-52
2021/08/03 05:02:48;;;;;;;2.05;1.67;;;14.00;99.90;;;;;;5040606;28;20017;-53
2021/08/03 05:05:14;;;;;;;1.95;1.52;;;14.10;99.90;;;;;;5040203;22;20069;-47
2021/08/03 05:07:40;;;;;;;1.67;1.35;;;14.10;99.90;;;;;;5008023;28;20030;-48
2021/08/03 05:10:09;;;;;;;1.60;1.50;;;14.10;99.90;;;;;;5008698;28;20022;-49
2021/08/03 05:12:36;;;;;;;3.60;1.60;;;14.10;99.90;;;;;;5008942;28;20017;-55
2021/08/03 05:15:02;;;;;;;3.58;1.90;;;14.20;99.90;;;;;;5007424;28;20052;-51
2021/08/03 05:17:30;;;;;;;2.42;1.77;;;14.20;99.90;;;;;;5008940;28;20026;-47
2021/08/03 05:19:55;;;;;;;2.67;1.80;;;14.20;99.90;;;;;;5008582;28;20053;-52
2021/08/03 05:22:21;;;;;;;1.80;1.42;;;14.20;99.90;;;;;;5008917;28;20014;-52
2021/08/03 05:24:47;;;;;;;2.17;1.73;;;14.30;99.90;;;;;;5008682;28;20026;-53
2021/08/03 05:27:13;;;;;;;2.95;1.90;;;14.30;99.90;;;;;;5008548;28;20048;-51
2021/08/03 05:29:38;;;;;;;3.70;2.10;;;14.30;99.90;;;;;;4995213;28;20026;-51
2021/08/03 05:32:04;;;;;;;2.75;2.05;;;14.30;99.90;;;;;;5007570;28;20033;-51
2021/08/03 05:34:30;;;;;;;2.30;2.10;;;14.40;99.90;;;;;;5008204;28;20033;-50
2021/08/03 05:36:55;;;;;;;4.75;2.25;;;14.40;99.90;;;;;;5008106;28;20080;-48
2021/08/03 05:39:21;;;;;;;2.35;1.92;;;14.40;99.90;;;;;;5008427;28;20022;-53
2021/08/03 05:41:47;;;;;;;2.38;1.88;;;14.40;99.90;;;;;;5007999;28;20033;-51
2021/08/03 05:44:12;;;;;;;4.45;2.33;;;14.50;99.90;;;;;;5008190;28;20071;-47
2021/08/03 05:46:38;;;;;;;4.93;2.22;;;14.50;99.90;;;;;;5008168;28;20108;-49
2021/08/03 05:49:03;;;;;;;3.38;2.33;;;14.60;99.90;;;;;;5008282;28;20119;-50
2021/08/03 05:51:29;;;;;;;4.28;2.35;;;14.60;99.90;;;;;;5008211;28;20120;-50
2021/08/03 05:53:55;;;;;;;2.35;1.80;;;14.60;99.90;;;;;;5008227;28;20034;-49
2021/08/03 05:56:21;;;;;;;4.82;2.08;;;14.70;99.90;;;;;;5007424;28;20029;-50
2021/08/03 05:58:46;;;;;;;3.45;1.88;;;14.70;99.90;;;;;;5008329;28;20496;-50
2021/08/03 06:01:12;;;;;;;2.67;2.33;;;14.70;99.90;;;;;;5008638;28;20026;-51
2021/08/03 06:03:37;;;;;;;3.78;2.28;;;14.70;99.90;;;;;;5007834;28;20014;-50
2021/08/03 06:06:07;;;;;;;2.75;2.05;;;14.70;99.90;;;;;;5007441;28;20578;-52
2021/08/03 06:08:34;;;;;;;3.85;2.05;;;14.80;99.90;;;;;;5007645;28;20093;-51
2021/08/03 06:11:01;;;;;;;2.53;1.67;;;14.80;99.90;;;;;;5007009;28;20030;-48
2021/08/03 06:13:30;;;;;;;3.67;2.10;;;14.90;99.90;;;;;;5008164;28;20148;-54
2021/08/03 06:15:59;;;;;;;3.63;2.40;;;15.00;99.90;;;;;;5005187;28;20026;-50
2021/08/03 06:18:29;;;;;;;2.75;1.83;;;15.10;99.90;;;;;;5007374;28;20508;-53
2021/08/03 06:20:55;;;;;;;2.10;1.90;;;15.00;99.90;;;;;;5008070;28;20037;-54
2021/08/03 06:23:22;;;;;;;9.38;1.77;;;15.10;99.90;;;;;;5008171;28;20061;-53
2021/08/03 06:25:50;;;;;;;2.92;1.92;;;15.20;99.90;;;;;;5007821;28;20676;-49
2021/08/03 06:28:17;;;;;;;2.40;1.60;;;15.30;99.90;;;;;;5000622;28;20022;-48
2021/08/03 06:30:46;;;;;;;2.75;1.83;;;15.40;99.90;;;;;;5007941;28;20096;-51
2021/08/03 06:33:15;;;;;;;2.65;1.70;;;15.50;99.90;;;;;;5007958;28;20059;-53
2021/08/03 06:35:40;;;;;;;2.72;1.70;;;15.60;99.90;;;;;;5007738;28;20022;-57
2021/08/03 06:38:06;;;;;;;3.05;1.33;;;15.80;99.90;;;;;;5008242;28;20080;-53
2021/08/03 06:40:32;;;;;;;2.22;1.48;;;15.90;99.90;;;;;;5007836;28;20026;-54
2021/08/03 06:43:06;;;;;;;2.05;1.58;;;16.00;99.90;;;;;;5007812;28;20033;-56
2021/08/03 06:45:33;;;;;;;1.65;1.45;;;16.10;99.90;;;;;;5007880;28;20364;-54
2021/08/03 06:48:09;;;;;;;3.67;1.40;;;16.20;99.90;;;;;;5008601;28;20022;-51
2021/08/03 06:50:44;;;;;;;2.53;1.30;;;16.30;99.90;;;;;;5005703;28;20046;-52
2021/08/03 06:53:11;;;;;;;4.30;1.50;;;16.30;99.90;;;;;;5003306;28;20033;-53
2021/08/03 06:55:41;;;;;;;0.95;0.95;;;16.40;99.90;;;;;;4996001;28;20104;-49
2021/08/03 06:58:12;;;;;;;1.55;1.17;;;16.60;99.90;;;;;;4998473;28;20488;-49
2021/08/03 07:00:40;;;;;;;2.55;1.30;;;16.70;99.90;;;;;;4996422;28;20092;-54
2021/08/03 07:03:07;;;;;;;1.33;1.17;;;16.80;99.90;;;;;;4998219;28;20437;-53
2021/08/03 07:05:34;;;;;;;1.52;1.05;;;16.90;99.90;;;;;;5009674;28;20510;-53
2021/08/03 07:08:00;;;;;;;1.70;1.27;;;17.10;99.90;;;;;;5008319;28;20451;-51
2021/08/03 07:10:27;;;;;;;1.55;1.00;;;17.20;99.90;;;;;;5011210;28;20022;-50
2021/08/03 07:12:54;;;;;;;2.70;1.05;;;17.40;99.90;;;;;;5011102;28;20081;-53
2021/08/03 07:15:21;;;;;;;1.25;0.95;;;17.50;99.90;;;;;;5010886;28;20037;-51
2021/08/03 07:17:48;;;;;;;1.30;0.85;;;17.70;99.90;;;;;;5009657;28;20030;-51
2021/08/03 07:20:15;;;;;;;1.85;0.90;;;17.80;99.90;;;;;;5011111;28;20582;-50
2021/08/03 07:22:42;;;;;;;1.52;0.80;;;17.90;99.90;;;;;;5009753;28;20018;-54
2021/08/03 07:25:09;;;;;;;1.65;0.85;;;18.10;99.90;;;;;;5010412;28;20033;-50
2021/08/03 07:27:35;;;;;;;0.75;0.70;;;18.20;99.90;;;;;;5011035;28;20108;-50
2021/08/03 07:30:02;;;;;;;1.50;1.00;;;18.40;99.90;;;;;;5011441;28;20427;-55
2021/08/03 07:32:27;;;;;;;2.78;1.20;;;18.60;99.90;;;;;;5010546;28;20037;-52
2021/08/03 07:34:53;;;;;;;1.20;0.90;;;18.70;99.90;;;;;;5010487;28;20052;-55
2021/08/03 07:37:18;;;;;;;0.60;0.60;;;18.90;99.90;;;;;;5011194;28;20148;-54
2021/08/03 07:39:44;;;;;;;0.90;0.82;;;19.10;99.90;;;;;;5010518;28;20061;-50
2021/08/03 07:42:10;;;;;;;1.17;0.77;;;19.30;99.90;;;;;;5010895;28;20088;-51
2021/08/03 07:44:37;;;;;;;2.00;0.90;;;19.50;99.90;;;;;;5010597;28;20032;-56
2021/08/03 07:47:04;;;;;;;2.10;1.05;;;19.60;99.90;;;;;;5010444;28;20026;-53
2021/08/03 07:49:29;;;;;;;1.83;0.63;;;19.50;99.90;;;;;;5010816;28;20079;-51
2021/08/03 07:51:55;;;;;;;1.73;0.70;;;19.60;99.90;;;;;;5010982;28;20034;-50
2021/08/03 07:54:20;;;;;;;1.88;0.60;;;19.50;99.90;;;;;;5010485;28;20022;-56
2021/08/03 07:56:46;;;;;;;2.90;0.60;;;19.60;99.90;;;;;;5010409;28;20030;-51
2021/08/03 07:59:12;;;;;;;1.20;0.85;;;19.80;99.90;;;;;;5009935;28;20050;-53
2021/08/03 08:01:38;;;;;;;1.63;0.88;;;19.80;99.90;;;;;;5010118;28;20028;-50
2021/08/03 08:04:03;;;;;;;1.13;0.80;;;19.80;99.90;;;;;;5010376;28;20141;-54
2021/08/03 08:06:29;;;;;;;1.35;0.80;;;19.70;99.90;;;;;;5010368;28;20255;-49
2021/08/03 08:08:55;;;;;;;1.90;0.98;;;19.70;99.90;;;;;;5010671;28;20026;-51
2021/08/03 08:11:21;;;;;;;1.20;1.10;;;19.60;99.90;;;;;;5009796;28;20096;-51
2021/08/03 08:13:46;;;;;;;2.05;0.70;;;19.50;99.90;;;;;;5009940;28;20026;-55
2021/08/03 08:16:12;;;;;;;0.95;0.70;;;19.30;99.90;;;;;;5009714;28;20159;-54
2021/08/03 08:18:37;;;;;;;1.13;0.80;;;19.10;99.90;;;;;;5010484;28;20107;-51
2021/08/03 08:21:04;;;;;;;1.58;0.80;;;18.90;99.90;;;;;;5010220;28;20053;-52
2021/08/03 08:23:30;;;;;;;1.27;0.50;;;18.80;99.90;;;;;;5008367;28;20099;-51
2021/08/03 08:25:58;;;;;;;1.60;0.60;;;18.60;99.90;;;;;;5009817;28;20603;-50
2021/08/03 08:28:24;;;;;;;2.60;0.75;;;18.30;99.90;;;;;;5009006;28;20024;-53
2021/08/03 08:30:50;;;;;;;1.58;0.68;;;18.10;99.90;;;;;;5008982;28;20030;-51
2021/08/03 08:33:15;;;;;;;1.23;0.65;;;18.00;99.90;;;;;;5002159;28;20018;-51
2021/08/03 08:35:41;;;;;;;2.10;0.82;;;17.80;99.90;;;;;;5007706;28;20021;-53
2021/08/03 08:38:07;;;;;;;0.65;0.65;;;17.70;99.90;;;;;;5010351;28;20054;-49
2021/08/03 08:40:33;;;;;;;0.82;0.70;;;17.50;99.90;;;;;;5009908;28;20022;-49
2021/08/03 08:42:58;;;;;;;0.80;0.50;;;17.40;99.90;;;;;;5009770;28;20018;-50
2021/08/03 08:45:24;;;;;;;0.82;0.82;;;17.30;99.90;;;;;;5009529;28;20025;-50
2021/08/03 08:47:50;;;;;;;0.95;0.75;;;17.10;99.90;;;;;;5009799;28;20129;-50
2021/08/03 08:50:21;;;;;;;1.27;0.75;;;17.10;99.90;;;;;;5009111;28;20064;-54
2021/08/03 08:52:50;;;;;;;0.57;0.40;;;17.10;99.90;;;;;;5009692;28;20018;-51
2021/08/03 08:55:16;;;;;;;0.70;0.70;;;17.10;99.90;;;;;;5001612;28;20028;-51
2021/08/03 08:57:42;;;;;;;0.85;0.70;;;17.10;99.90;;;;;;5010179;28;20104;-56
2021/08/03 09:00:09;;;;;;;0.95;0.73;;;17.20;99.90;;;;;;5009012;28;20427;-50
2021/08/03 09:02:46;;;;;;;1.05;0.88;;;17.30;99.90;;;;;;5009460;28;20021;-51
2021/08/03 09:05:16;;;;;;;2.05;1.67;;;17.30;99.90;;;;;;5009035;28;20080;-52
2021/08/03 09:07:55;;;;;;;1.00;0.90;;;17.40;99.90;;;;;;5009709;28;20113;-49
2021/08/03 09:10:36;;;;;;;1.52;0.75;;;17.50;99.90;;;;;;5008884;28;20042;-49
2021/08/03 09:13:07;;;;;;;0.95;0.73;;;17.70;99.90;;;;;;5009094;28;20104;-51
2021/08/03 09:15:35;;;;;;;2.28;0.80;;;17.70;99.90;;;;;;5003135;28;20442;-51
2021/08/03 09:18:12;;;;;;;1.63;0.70;;;17.70;99.90;;;;;;5008417;28;20398;-50
2021/08/03 09:20:39;;;;;;;0.93;0.65;;;17.80;99.90;;;;;;5004148;28;20026;-51
2021/08/03 09:23:04;;;;;;;1.42;0.90;;;17.80;99.90;;;;;;5007583;28;20077;-54
2021/08/03 09:25:30;;;;;;;0.90;0.90;;;17.80;99.90;;;;;;5007221;28;20025;-52
2021/08/03 09:28:07;;;;;;;2.22;1.02;;;17.80;99.90;;;;;;5009643;28;20026;-51
2021/08/03 09:30:35;;;;;;;0.90;0.68;;;17.90;99.90;;;;;;5009191;28;20033;-54
2021/08/03 09:33:01;;;;;;;1.85;1.05;;;17.90;99.90;;;;;;5007170;28;20568;-54
2021/08/03 09:35:28;;;;;;;0.70;0.70;;;18.00;99.90;;;;;;5008685;28;20021;-51
2021/08/03 09:37:54;;;;;;;2.22;0.93;;;18.10;99.90;;;;;;5008573;28;20101;-56
2021/08/03 09:40:22;;;;;;;2.03;1.00;;;18.20;99.90;;;;;;5008738;28;20022;-53
2021/08/03 09:43:02;;;;;;;1.40;1.17;;;18.30;99.90;;;;;;5008724;28;20055;-55
2021/08/03 09:45:31;;;;;;;1.20;1.10;;;18.50;99.90;;;;;;5002105;28;20522;-53
2021/08/03 09:48:14;;;;;;;2.47;0.70;;;18.70;99.90;;;;;;5008371;28;20014;-53
2021/08/03 09:51:06;;;;;;;0.95;0.82;;;18.80;99.90;;;;;;5007518;28;20149;-57
2021/08/03 09:53:52;;;;;;;2.80;0.90;;;18.90;99.90;;;;;;5002861;28;20022;-53
2021/08/03 09:56:26;;;;;;;2.55;0.90;;;19.00;99.90;;;;;;5004685;28;20035;-56
2021/08/03 09:58:59;;;;;;;2.15;0.80;;;19.00;99.90;;;;;;5009240;28;20438;-53
2021/08/03 10:01:28;;;;;;;0.77;0.70;;;19.20;99.90;;;;;;5001098;28;20097;-56
2021/08/03 10:03:55;;;;;;;0.65;0.60;;;19.40;99.90;;;;;;4990746;28;20026;-56
2021/08/03 10:06:21;;;;;;;1.13;0.80;;;19.40;99.90;;;;;;5002717;28;20026;-49
2021/08/03 10:08:49;;;;;;;0.60;0.60;;;19.50;99.90;;;;;;5006533;28;20089;-53
2021/08/03 10:11:16;;;;;;;0.40;0.40;;;19.50;99.90;;;;;;5008268;28;20026;-56
2021/08/03 10:13:43;;;;;;;1.70;0.55;;;19.70;99.90;;;;;;5007047;28;20644;-53
2021/08/03 10:16:08;;;;;;;1.45;0.75;;;19.80;99.90;;;;;;5008136;28;20040;-53
2021/08/03 10:18:38;;;;;;;1.50;0.90;;;20.00;99.90;;;;;;4977828;28;20100;-56
2021/08/03 10:21:04;;;;;;;0.75;0.75;;;20.10;99.90;;;;;;4900056;28;20077;-52
2021/08/03 10:23:34;;;;;;;0.60;0.57;;;20.30;99.90;;;;;;4970699;28;20053;-55
2021/08/03 10:26:00;;;;;;;1.35;0.70;;;20.30;99.90;;;;;;4973182;28;20027;-51
2021/08/03 10:28:27;;;;;;;0.65;0.65;;;20.40;99.90;;;;;;4972997;28;20099;-53
2021/08/03 10:30:54;;;;;;;2.33;0.88;;;20.40;99.90;;;;;;4972987;28;20034;-54
2021/08/03 10:33:42;;;;;;;1.67;0.85;;;20.30;99.90;;;;;;4970478;28;20081;-49
2021/08/03 10:36:09;;;;;;;3.55;1.73;;;20.30;99.90;;;;;;4971898;28;20046;-53
2021/08/03 10:38:35;;;;;;;3.25;1.40;;;20.20;99.90;;;;;;4972703;28;20045;-55
2021/08/03 10:41:02;;;;;;;0.50;0.50;;;20.30;99.90;;;;;;4972399;28;20018;-48
2021/08/03 10:43:33;;;;;;;1.33;0.65;;;20.50;99.90;;;;;;4972651;28;20034;-49
2021/08/03 10:46:08;;;;;;;2.47;0.70;;;20.70;99.90;;;;;;4972001;28;20069;-52
2021/08/03 10:48:40;;;;;;;0.60;0.50;;;20.70;99.90;;;;;;4972571;28;20102;-49
2021/08/03 10:51:18;;;;;;;0.50;0.50;;;20.70;99.90;;;;;;4970684;28;20102;-50
2021/08/03 10:54:12;;;;;;;1.20;0.90;;;20.90;99.90;;;;;;4966576;28;20387;-55
2021/08/03 10:56:56;;;;;;;0.50;0.50;;;21.20;99.90;;;;;;4962529;28;20050;-52
2021/08/03 10:59:31;;;;;;;1.33;0.75;;;21.40;99.90;;;;;;4967516;28;20029;-55
2021/08/03 11:01:57;;;;;;;1.95;0.50;;;21.30;99.90;;;;;;4970210;28;20050;-54
2021/08/03 11:04:59;;;;;;;1.73;0.60;;;21.20;99.90;;;;;;4972165;28;20085;-53
2021/08/03 11:07:36;;;;;;;1.50;0.50;;;21.00;99.90;;;;;;4990893;23;20055;-50
2021/08/03 11:10:02;;;;;;;2.45;0.95;;;20.50;99.90;;;;;;4971253;28;20049;-56
2021/08/03 11:12:45;;;;;;;2.38;0.73;;;20.10;99.90;;;;;;4972707;28;20489;-53
2021/08/03 11:15:22;;;;;;;1.63;0.93;;;19.70;99.90;;;;;;4972161;28;20524;-56
2021/08/03 11:17:52;;;;;;;1.05;0.60;;;19.40;99.90;;;;;;4952697;28;20027;-54
2021/08/03 11:20:39;;;;;;;0.65;0.60;;;19.10;99.90;;;;;;4952578;28;20024;-54
2021/08/03 11:23:11;;;;;;;1.30;0.60;;;18.80;99.90;;;;;;4952664;29;20023;-52
2021/08/03 11:25:38;;;;;;;1.73;0.82;;;18.80;99.90;;;;;;4952474;28;20493;-51
2021/08/03 11:28:08;;;;;;;0.93;0.73;;;18.60;99.90;;;;;;4952588;28;20456;-53
2021/08/03 11:30:33;;;;;;;0.50;0.40;;;18.60;99.90;;;;;;4952899;28;20031;-51
2021/08/03 11:32:59;;;;;;;1.10;1.00;;;18.50;99.90;;;;;;4952524;28;20086;-52
2021/08/03 11:35:27;;;;;;;0.90;0.80;;;18.30;99.90;;;;;;4951439;28;20023;-55
2021/08/03 11:37:53;;;;;;;0.60;0.60;;;18.30;99.90;;;;;;4953031;28;20029;-56
2021/08/03 11:40:18;;;;;;;1.83;0.77;;;18.50;99.90;;;;;;4952938;28;20026;-53
2021/08/03 11:42:45;;;;;;;1.38;0.50;;;18.50;99.90;;;;;;4967610;28;20608;-51
2021/08/03 11:45:20;;;;;;;1.23;0.90;;;18.50;99.90;;;;;;4952915;28;20601;-54
2021/08/03 11:47:50;;;;;;;3.75;1.30;;;18.60;99.90;;;;;;4952348;28;20071;-53
2021/08/03 11:50:40;;;;;;;1.52;0.80;;;18.40;99.90;;;;;;4952671;28;20109;-51
2021/08/03 11:53:18;;;;;;;0.95;0.70;;;18.50;99.90;;;;;;4951516;28;20109;-52
2021/08/03 11:55:50;;;;;;;0.43;0.40;;;18.60;99.90;;;;;;4951738;28;20525;-52
2021/08/03 11:58:24;;;;;;;0.50;0.50;;;18.70;99.90;;;;;;4951808;28;20058;-51
2021/08/03 12:00:57;;;;;;;0.77;0.55;;;18.70;99.90;;;;;;4952261;28;20031;-52
2021/08/03 12:03:35;;;;;;;1.65;0.50;;;18.70;99.90;;;;;;4950385;29;20034;-54
2021/08/03 12:06:02;;;;;;;2.97;0.80;;;18.80;99.90;;;;;;4950029;28;20027;-52
2021/08/03 12:08:33;;;;;;;2.08;0.68;;;18.90;99.90;;;;;;4951616;28;20023;-53
2021/08/03 12:10:59;;;;;;;1.13;0.93;;;18.90;99.90;;;;;;4952159;29;20102;-56
2021/08/03 12:13:36;;;;;;;1.25;0.73;;;18.90;99.90;;;;;;4950595;28;20207;-51
2021/08/03 12:16:06;;;;;;;0.65;0.65;;;19.00;99.90;;;;;;4952420;28;20081;-53
2021/08/03 12:18:40;;;;;;;0.82;0.82;;;19.20;99.90;;;;;;4952002;28;20038;-54
2021/08/03 12:21:06;;;;;;;1.55;0.75;;;19.40;99.90;;;;;;4937041;28;20044;-51
2021/08/03 12:23:34;;;;;;;1.05;0.60;;;19.50;99.90;;;;;;4939998;29;20030;-53
2021/08/03 12:26:19;;;;;;;0.82;0.77;;;19.70;99.90;;;;;;4951709;28;20050;-52
2021/08/03 12:28:50;;;;;;;0.98;0.80;;;19.70;99.90;;;;;;4952094;28;20030;-53
2021/08/03 12:31:20;;;;;;;1.33;0.90;;;19.60;99.90;;;;;;4951362;29;20024;-54
2021/08/03 12:33:46;;;;;;;0.60;0.60;;;19.70;99.90;;;;;;4951623;28;20058;-51
2021/08/03 12:36:15;;;;;;;1.05;0.60;;;20.00;99.90;;;;;;4950279;28;20022;-51
2021/08/03 12:38:44;;;;;;;1.13;0.88;;;20.00;99.90;;;;;;4951333;28;20030;-53
2021/08/03 12:41:20;;;;;;;0.45;0.45;;;20.10;99.90;;;;;;4951397;28;20098;-50
2021/08/03 12:43:46;;;;;;;0.50;0.50;;;20.30;99.60;;;;;;4951572;28;20630;-51
2021/08/03 12:46:12;;;;;;;1.05;0.50;;;20.40;99.90;;;;;;4949651;28;20085;-51
2021/08/03 12:48:51;;;;;;;0.45;0.40;;;20.70;99.90;;;;;;4951466;28;20062;-51
2021/08/03 12:51:24;;;;;;;0.57;0.50;;;20.90;99.40;;;;;;4951117;28;20581;-50
2021/08/03 12:53:50;;;;;;;1.20;0.70;;;21.00;98.40;;;;;;4951708;28;20033;-50
2021/08/03 12:56:36;;;;;;;0.60;0.57;;;21.10;99.00;;;;;;4962268;28;20020;-56
2021/08/03 12:59:02;;;;;;;;;;;20.80;98.80;;;;;;4952644;28;20612;-51